Alts de Manati, Puerto Rico
Current Conditions -  °F | °C
As of 7:56 AM on Wednesday 28 Jan 2015 (Local Time) from TJSJ Reporting Station
Scattered Clouds Scattered Clouds  
Wind Chill: 76°   Ceiling: Unl
Heat Index: 76°   Visibility: 10mi
Dew Point: 72°   Wind: 0mph
Humidity: 87%   Direction: NA
Pressure: 30.02"   Gusts: NA
Location:  18.4259°N, 66.4717°W
Report Text: TJSJ 281156Z 00000KT 10SM FEW028 SCT060 24/22 A3002 RMK AO2 SLP165 T02440222 10244 20228 53015
Loading
Personal Weather Stations






























Interactive Weather Map New forecast layout! Learn more

10-Day Weather Forecast

Advertisements
Track Severe Weather on mobile